sensor_id;sensor_type;location;lat;lon;timestamp;temperature;humidity
13072;DHT22;6602;58.934;11.166;2023-05-28T00:00:34;12.30;99.90
13072;DHT22;6602;58.934;11.166;2023-05-28T00:05:35;12.20;99.90
13072;DHT22;6602;58.934;11.166;2023-05-28T00:10:40;12.20;99.90
13072;DHT22;6602;58.934;11.166;2023-05-28T00:15:44;12.20;99.90
13072;DHT22;6602;58.934;11.166;2023-05-28T00:20:50;12.10;99.90
13072;DHT22;6602;58.934;11.166;2023-05-28T00:25:57;12.00;99.90
13072;DHT22;6602;58.934;11.166;2023-05-28T00:30:58;12.00;99.90
13072;DHT22;6602;58.934;11.166;2023-05-28T00:36:00;12.00;99.90
13072;DHT22;6602;58.934;11.166;2023-05-28T00:41:06;11.90;99.90
13072;DHT22;6602;58.934;11.166;2023-05-28T00:46:08;11.90;99.90
13072;DHT22;6602;58.934;11.166;2023-05-28T00:51:17;11.90;99.90
13072;DHT22;6602;58.934;11.166;2023-05-28T00:56:28;11.90;99.90
13072;DHT22;6602;58.934;11.166;2023-05-28T01:01:36;11.90;99.90
13072;DHT22;6602;58.934;11.166;2023-05-28T01:06:39;11.90;99.90
13072;DHT22;6602;58.934;11.166;2023-05-28T01:11:44;12.00;99.90
13072;DHT22;6602;58.934;11.166;2023-05-28T01:16:47;12.00;99.90
13072;DHT22;6602;58.934;11.166;2023-05-28T01:22:03;12.00;99.90
13072;DHT22;6602;58.934;11.166;2023-05-28T01:27:18;12.00;99.90
13072;DHT22;6602;58.934;11.166;2023-05-28T01:32:24;11.90;99.90
13072;DHT22;6602;58.934;11.166;2023-05-28T01:37:31;11.90;99.90
13072;DHT22;6602;58.934;11.166;2023-05-28T01:42:38;11.90;99.90
13072;DHT22;6602;58.934;11.166;2023-05-28T01:47:43;11.90;99.90
13072;DHT22;6602;58.934;11.166;2023-05-28T01:52:44;11.90;99.90
13072;DHT22;6602;58.934;11.166;2023-05-28T01:57:48;11.80;99.90
13072;DHT22;6602;58.934;11.166;2023-05-28T02:02:53;11.90;99.90
13072;DHT22;6602;58.934;11.166;2023-05-28T02:08:00;11.90;99.90
13072;DHT22;6602;58.934;11.166;2023-05-28T02:13:04;11.90;99.90
13072;DHT22;6602;58.934;11.166;2023-05-28T02:18:06;11.90;99.90
13072;DHT22;6602;58.934;11.166;2023-05-28T02:23:10;11.90;99.90
13072;DHT22;6602;58.934;11.166;2023-05-28T02:28:12;11.90;99.90
13072;DHT22;6602;58.934;11.166;2023-05-28T02:33:19;12.00;99.90
13072;DHT22;6602;58.934;11.166;2023-05-28T02:38:22;12.00;99.90
13072;DHT22;6602;58.934;11.166;2023-05-28T02:43:30;12.00;99.90
13072;DHT22;6602;58.934;11.166;2023-05-28T02:48:34;12.00;99.90
13072;DHT22;6602;58.934;11.166;2023-05-28T02:53:41;12.10;99.90
13072;DHT22;6602;58.934;11.166;2023-05-28T02:58:47;12.30;99.90
13072;DHT22;6602;58.934;11.166;2023-05-28T03:03:57;12.50;99.90
13072;DHT22;6602;58.934;11.166;2023-05-28T03:08:59;12.60;99.90
13072;DHT22;6602;58.934;11.166;2023-05-28T03:14:01;12.80;99.90
13072;DHT22;6602;58.934;11.166;2023-05-28T03:19:03;12.90;99.90
13072;DHT22;6602;58.934;11.166;2023-05-28T03:24:08;13.00;99.90
13072;DHT22;6602;58.934;11.166;2023-05-28T03:29:09;13.10;99.90
13072;DHT22;6602;58.934;11.166;2023-05-28T03:34:10;13.10;99.90
13072;DHT22;6602;58.934;11.166;2023-05-28T03:39:12;13.10;99.90
13072;DHT22;6602;58.934;11.166;2023-05-28T03:44:15;13.10;99.90
13072;DHT22;6602;58.934;11.166;2023-05-28T03:49:19;13.30;99.90
13072;DHT22;6602;58.934;11.166;2023-05-28T03:54:26;13.50;99.90
13072;DHT22;6602;58.934;11.166;2023-05-28T03:59:34;13.20;99.90
13072;DHT22;6602;58.934;11.166;2023-05-28T04:04:35;13.20;99.90
13072;DHT22;6602;58.934;11.166;2023-05-28T04:09:37;13.30;99.90
13072;DHT22;6602;58.934;11.166;2023-05-28T04:14:39;13.50;99.90
13072;DHT22;6602;58.934;11.166;2023-05-28T04:19:41;13.70;99.90
13072;DHT22;6602;58.934;11.166;2023-05-28T04:24:42;13.80;99.90
13072;DHT22;6602;58.934;11.166;2023-05-28T04:29:45;14.00;99.90
13072;DHT22;6602;58.934;11.166;2023-05-28T04:34:46;14.20;99.90
13072;DHT22;6602;58.934;11.166;2023-05-28T04:39:50;14.40;99.90
13072;DHT22;6602;58.934;11.166;2023-05-28T04:44:52;14.40;99.90
13072;DHT22;6602;58.934;11.166;2023-05-28T04:49:56;14.00;99.90
13072;DHT22;6602;58.934;11.166;2023-05-28T04:54:58;13.80;99.90
13072;DHT22;6602;58.934;11.166;2023-05-28T05:00:00;13.90;99.90
13072;DHT22;6602;58.934;11.166;2023-05-28T05:05:01;14.00;99.90
13072;DHT22;6602;58.934;11.166;2023-05-28T05:10:13;14.00;99.90
13072;DHT22;6602;58.934;11.166;2023-05-28T05:15:14;14.00;99.90
13072;DHT22;6602;58.934;11.166;2023-05-28T05:20:17;13.90;99.90
13072;DHT22;6602;58.934;11.166;2023-05-28T05:25:22;13.90;99.90
13072;DHT22;6602;58.934;11.166;2023-05-28T05:30:28;14.10;99.90
13072;DHT22;6602;58.934;11.166;2023-05-28T05:35:32;14.40;99.90
13072;DHT22;6602;58.934;11.166;2023-05-28T05:40:34;14.30;99.90
13072;DHT22;6602;58.934;11.166;2023-05-28T05:45:47;14.20;99.90
13072;DHT22;6602;58.934;11.166;2023-05-28T05:50:52;14.10;99.90
13072;DHT22;6602;58.934;11.166;2023-05-28T05:55:57;14.00;99.90
13072;DHT22;6602;58.934;11.166;2023-05-28T06:01:01;13.90;99.90
13072;DHT22;6602;58.934;11.166;2023-05-28T06:06:02;13.90;99.90
13072;DHT22;6602;58.934;11.166;2023-05-28T06:11:05;14.00;99.90
13072;DHT22;6602;58.934;11.166;2023-05-28T06:16:06;13.70;99.90
13072;DHT22;6602;58.934;11.166;2023-05-28T06:21:09;13.60;99.90
13072;DHT22;6602;58.934;11.166;2023-05-28T06:26:11;13.90;99.90
13072;DHT22;6602;58.934;11.166;2023-05-28T06:31:18;13.90;99.90
13072;DHT22;6602;58.934;11.166;2023-05-28T06:36:20;13.90;99.90
13072;DHT22;6602;58.934;11.166;2023-05-28T06:41:28;14.00;99.90
13072;DHT22;6602;58.934;11.166;2023-05-28T06:46:47;14.10;99.90
13072;DHT22;6602;58.934;11.166;2023-05-28T06:51:49;14.20;99.90
13072;DHT22;6602;58.934;11.166;2023-05-28T06:56:51;14.20;99.90
13072;DHT22;6602;58.934;11.166;2023-05-28T07:01:52;14.10;99.90
13072;DHT22;6602;58.934;11.166;2023-05-28T07:06:54;14.00;99.90
13072;DHT22;6602;58.934;11.166;2023-05-28T07:11:58;13.70;99.90
13072;DHT22;6602;58.934;11.166;2023-05-28T07:17:01;13.70;99.90
13072;DHT22;6602;58.934;11.166;2023-05-28T07:22:02;13.90;99.90
13072;DHT22;6602;58.934;11.166;2023-05-28T07:27:03;13.80;99.90
13072;DHT22;6602;58.934;11.166;2023-05-28T07:32:12;13.80;99.90
13072;DHT22;6602;58.934;11.166;2023-05-28T07:37:15;13.90;99.90
13072;DHT22;6602;58.934;11.166;2023-05-28T07:42:18;14.10;99.90
13072;DHT22;6602;58.934;11.166;2023-05-28T07:47:31;14.10;99.90
13072;DHT22;6602;58.934;11.166;2023-05-28T07:52:34;14.20;99.90
13072;DHT22;6602;58.934;11.166;2023-05-28T07:57:36;14.00;99.90
13072;DHT22;6602;58.934;11.166;2023-05-28T08:02:40;14.10;99.90
13072;DHT22;6602;58.934;11.166;2023-05-28T08:07:44;14.50;99.90
13072;DHT22;6602;58.934;11.166;2023-05-28T08:12:53;14.40;99.90
13072;DHT22;6602;58.934;11.166;2023-05-28T08:17:57;14.20;99.90
13072;DHT22;6602;58.934;11.166;2023-05-28T08:23:07;14.10;99.90
13072;DHT22;6602;58.934;11.166;2023-05-28T08:28:08;14.20;99.90
13072;DHT22;6602;58.934;11.166;2023-05-28T08:33:12;14.30;99.90
13072;DHT22;6602;58.934;11.166;2023-05-28T08:38:13;14.40;99.90
13072;DHT22;6602;58.934;11.166;2023-05-28T08:43:15;14.50;99.90
13072;DHT22;6602;58.934;11.166;2023-05-28T08:48:17;14.60;99.90
13072;DHT22;6602;58.934;11.166;2023-05-28T08:53:22;14.80;99.90
13072;DHT22;6602;58.934;11.166;2023-05-28T08:58:24;14.80;99.90
13072;DHT22;6602;58.934;11.166;2023-05-28T09:03:27;14.70;99.90
13072;DHT22;6602;58.934;11.166;2023-05-28T09:08:30;14.70;99.90
13072;DHT22;6602;58.934;11.166;2023-05-28T09:13:32;14.90;99.90
13072;DHT22;6602;58.934;11.166;2023-05-28T09:18:33;14.90;99.90
13072;DHT22;6602;58.934;11.166;2023-05-28T09:23:35;15.10;99.90
13072;DHT22;6602;58.934;11.166;2023-05-28T09:28:41;15.10;99.90
13072;DHT22;6602;58.934;11.166;2023-05-28T09:33:46;15.20;99.90
13072;DHT22;6602;58.934;11.166;2023-05-28T09:38:47;15.50;99.90
13072;DHT22;6602;58.934;11.166;2023-05-28T09:44:09;15.50;99.90
13072;DHT22;6602;58.934;11.166;2023-05-28T09:49:11;15.50;99.90
13072;DHT22;6602;58.934;11.166;2023-05-28T09:54:12;15.80;99.90
13072;DHT22;6602;58.934;11.166;2023-05-28T09:59:17;15.80;99.90
13072;DHT22;6602;58.934;11.166;2023-05-28T10:04:23;15.70;99.90
13072;DHT22;6602;58.934;11.166;2023-05-28T10:09:30;15.80;99.90
13072;DHT22;6602;58.934;11.166;2023-05-28T10:14:32;15.90;99.90
13072;DHT22;6602;58.934;11.166;2023-05-28T10:19:34;15.80;99.90
13072;DHT22;6602;58.934;11.166;2023-05-28T10:24:36;15.70;99.90
13072;DHT22;6602;58.934;11.166;2023-05-28T10:29:41;16.00;99.90
13072;DHT22;6602;58.934;11.166;2023-05-28T10:34:43;16.00;99.90
13072;DHT22;6602;58.934;11.166;2023-05-28T10:39:45;15.90;99.90
13072;DHT22;6602;58.934;11.166;2023-05-28T10:45:08;15.80;99.90
13072;DHT22;6602;58.934;11.166;2023-05-28T10:50:16;15.90;99.90
13072;DHT22;6602;58.934;11.166;2023-05-28T10:55:19;15.90;99.90
13072;DHT22;6602;58.934;11.166;2023-05-28T11:00:24;15.80;99.90
13072;DHT22;6602;58.934;11.166;2023-05-28T11:05:26;15.90;99.90
13072;DHT22;6602;58.934;11.166;2023-05-28T11:10:28;16.10;99.90
13072;DHT22;6602;58.934;11.166;2023-05-28T11:15:28;16.20;99.90
13072;DHT22;6602;58.934;11.166;2023-05-28T11:20:29;16.20;99.90
13072;DHT22;6602;58.934;11.166;2023-05-28T11:25:30;16.40;99.90
13072;DHT22;6602;58.934;11.166;2023-05-28T11:30:31;16.50;99.90
13072;DHT22;6602;58.934;11.166;2023-05-28T11:35:35;16.50;99.90
13072;DHT22;6602;58.934;11.166;2023-05-28T11:40:36;16.50;99.90
13072;DHT22;6602;58.934;11.166;2023-05-28T11:45:37;16.40;99.90
13072;DHT22;6602;58.934;11.166;2023-05-28T11:50:38;16.30;99.90
13072;DHT22;6602;58.934;11.166;2023-05-28T11:55:39;16.50;99.90
13072;DHT22;6602;58.934;11.166;2023-05-28T12:00:40;16.50;99.90
13072;DHT22;6602;58.934;11.166;2023-05-28T12:05:41;16.50;99.90
13072;DHT22;6602;58.934;11.166;2023-05-28T12:10:43;16.40;99.90
13072;DHT22;6602;58.934;11.166;2023-05-28T12:15:45;16.10;99.90
13072;DHT22;6602;58.934;11.166;2023-05-28T12:20:46;16.30;99.90
13072;DHT22;6602;58.934;11.166;2023-05-28T12:25:51;16.40;99.90
13072;DHT22;6602;58.934;11.166;2023-05-28T12:30:55;16.60;99.90
13072;DHT22;6602;58.934;11.166;2023-05-28T12:35:58;16.50;99.90
13072;DHT22;6602;58.934;11.166;2023-05-28T12:41:00;16.50;99.90
13072;DHT22;6602;58.934;11.166;2023-05-28T12:46:04;16.70;99.90
13072;DHT22;6602;58.934;11.166;2023-05-28T12:51:05;16.80;99.90
13072;DHT22;6602;58.934;11.166;2023-05-28T12:56:06;17.10;99.90
13072;DHT22;6602;58.934;11.166;2023-05-28T13:01:07;17.10;99.90
13072;DHT22;6602;58.934;11.166;2023-05-28T13:06:08;17.30;99.90
13072;DHT22;6602;58.934;11.166;2023-05-28T13:11:10;17.20;99.90
13072;DHT22;6602;58.934;11.166;2023-05-28T13:16:12;17.20;99.90
13072;DHT22;6602;58.934;11.166;2023-05-28T13:21:13;17.00;99.90
13072;DHT22;6602;58.934;11.166;2023-05-28T13:26:14;17.00;99.90
13072;DHT22;6602;58.934;11.166;2023-05-28T13:31:15;17.00;99.90
13072;DHT22;6602;58.934;11.166;2023-05-28T13:36:17;17.00;99.90
13072;DHT22;6602;58.934;11.166;2023-05-28T13:41:18;17.00;99.90
13072;DHT22;6602;58.934;11.166;2023-05-28T13:46:23;17.10;99.90
13072;DHT22;6602;58.934;11.166;2023-05-28T13:51:27;17.00;99.90
13072;DHT22;6602;58.934;11.166;2023-05-28T13:56:29;16.90;99.90
13072;DHT22;6602;58.934;11.166;2023-05-28T14:01:30;16.90;99.90
13072;DHT22;6602;58.934;11.166;2023-05-28T14:06:30;16.90;99.90
13072;DHT22;6602;58.934;11.166;2023-05-28T14:11:34;16.90;99.90
13072;DHT22;6602;58.934;11.166;2023-05-28T14:16:36;17.10;99.90
13072;DHT22;6602;58.934;11.166;2023-05-28T14:21:37;17.20;99.90
13072;DHT22;6602;58.934;11.166;2023-05-28T14:26:39;17.20;99.90
13072;DHT22;6602;58.934;11.166;2023-05-28T14:31:39;17.00;99.90
13072;DHT22;6602;58.934;11.166;2023-05-28T14:36:40;17.10;99.90
13072;DHT22;6602;58.934;11.166;2023-05-28T14:41:41;17.10;99.90
13072;DHT22;6602;58.934;11.166;2023-05-28T14:46:43;17.00;99.90
13072;DHT22;6602;58.934;11.166;2023-05-28T14:51:44;17.00;99.90
13072;DHT22;6602;58.934;11.166;2023-05-28T14:56:45;16.90;99.90
13072;DHT22;6602;58.934;11.166;2023-05-28T15:01:46;16.90;99.90
13072;DHT22;6602;58.934;11.166;2023-05-28T15:06:47;16.70;99.90
13072;DHT22;6602;58.934;11.166;2023-05-28T15:11:48;16.70;99.90
13072;DHT22;6602;58.934;11.166;2023-05-28T15:16:49;16.50;99.90
13072;DHT22;6602;58.934;11.166;2023-05-28T15:21:50;16.50;99.90
13072;DHT22;6602;58.934;11.166;2023-05-28T15:26:51;16.70;99.90
13072;DHT22;6602;58.934;11.166;2023-05-28T15:31:53;16.80;99.90
13072;DHT22;6602;58.934;11.166;2023-05-28T15:36:56;16.70;99.90
13072;DHT22;6602;58.934;11.166;2023-05-28T15:42:05;16.70;99.90
13072;DHT22;6602;58.934;11.166;2023-05-28T15:47:06;16.70;99.90
13072;DHT22;6602;58.934;11.166;2023-05-28T15:52:07;16.80;99.90
13072;DHT22;6602;58.934;11.166;2023-05-28T15:57:08;16.90;99.90
13072;DHT22;6602;58.934;11.166;2023-05-28T16:02:13;16.90;99.90
13072;DHT22;6602;58.934;11.166;2023-05-28T16:07:16;16.90;99.90
13072;DHT22;6602;58.934;11.166;2023-05-28T16:12:18;17.00;99.90
13072;DHT22;6602;58.934;11.166;2023-05-28T16:17:19;17.10;99.90
13072;DHT22;6602;58.934;11.166;2023-05-28T16:22:22;17.20;99.90
13072;DHT22;6602;58.934;11.166;2023-05-28T16:27:23;17.00;99.90
13072;DHT22;6602;58.934;11.166;2023-05-28T16:32:26;16.80;99.90
13072;DHT22;6602;58.934;11.166;2023-05-28T16:37:30;16.70;99.90
13072;DHT22;6602;58.934;11.166;2023-05-28T16:42:31;16.70;99.90
13072;DHT22;6602;58.934;11.166;2023-05-28T16:47:33;16.70;99.90
13072;DHT22;6602;58.934;11.166;2023-05-28T16:52:37;16.70;99.90
13072;DHT22;6602;58.934;11.166;2023-05-28T16:57:38;16.70;99.90
13072;DHT22;6602;58.934;11.166;2023-05-28T17:02:40;16.50;99.90
13072;DHT22;6602;58.934;11.166;2023-05-28T17:07:41;16.30;99.90
13072;DHT22;6602;58.934;11.166;2023-05-28T17:12:44;16.00;99.90
13072;DHT22;6602;58.934;11.166;2023-05-28T17:17:45;15.80;99.90
13072;DHT22;6602;58.934;11.166;2023-05-28T17:22:49;15.80;99.90
13072;DHT22;6602;58.934;11.166;2023-05-28T17:27:50;16.00;99.90
13072;DHT22;6602;58.934;11.166;2023-05-28T17:32:51;16.10;99.90
13072;DHT22;6602;58.934;11.166;2023-05-28T17:37:52;16.00;99.90
13072;DHT22;6602;58.934;11.166;2023-05-28T17:42:53;16.00;99.90
13072;DHT22;6602;58.934;11.166;2023-05-28T17:47:54;16.00;99.90
13072;DHT22;6602;58.934;11.166;2023-05-28T17:52:55;15.90;99.90
13072;DHT22;6602;58.934;11.166;2023-05-28T17:57:56;15.90;99.90
13072;DHT22;6602;58.934;11.166;2023-05-28T18:02:57;15.90;99.90
13072;DHT22;6602;58.934;11.166;2023-05-28T18:08:00;15.80;99.90
13072;DHT22;6602;58.934;11.166;2023-05-28T18:13:02;15.70;99.90
13072;DHT22;6602;58.934;11.166;2023-05-28T18:18:03;15.60;99.90
13072;DHT22;6602;58.934;11.166;2023-05-28T18:23:04;15.50;99.90
13072;DHT22;6602;58.934;11.166;2023-05-28T18:28:10;15.30;99.90
13072;DHT22;6602;58.934;11.166;2023-05-28T18:33:11;15.20;99.90
13072;DHT22;6602;58.934;11.166;2023-05-28T18:38:13;15.00;99.90
13072;DHT22;6602;58.934;11.166;2023-05-28T18:43:16;14.90;99.90
13072;DHT22;6602;58.934;11.166;2023-05-28T18:48:17;14.80;99.90
13072;DHT22;6602;58.934;11.166;2023-05-28T18:53:18;14.70;99.90
13072;DHT22;6602;58.934;11.166;2023-05-28T18:58:22;14.60;99.90
13072;DHT22;6602;58.934;11.166;2023-05-28T19:03:23;14.60;99.90
13072;DHT22;6602;58.934;11.166;2023-05-28T19:08:24;14.50;99.90
13072;DHT22;6602;58.934;11.166;2023-05-28T19:13:24;14.40;99.90
13072;DHT22;6602;58.934;11.166;2023-05-28T19:18:26;14.40;99.90
13072;DHT22;6602;58.934;11.166;2023-05-28T19:23:27;14.30;99.90
13072;DHT22;6602;58.934;11.166;2023-05-28T19:28:28;14.20;99.90
13072;DHT22;6602;58.934;11.166;2023-05-28T19:33:29;14.10;99.90
13072;DHT22;6602;58.934;11.166;2023-05-28T19:38:29;14.00;99.90
13072;DHT22;6602;58.934;11.166;2023-05-28T19:43:30;13.90;99.90
13072;DHT22;6602;58.934;11.166;2023-05-28T19:48:31;13.70;99.90
13072;DHT22;6602;58.934;11.166;2023-05-28T19:53:33;13.60;99.90
13072;DHT22;6602;58.934;11.166;2023-05-28T19:58:34;13.50;99.90
13072;DHT22;6602;58.934;11.166;2023-05-28T20:03:35;13.40;99.90
13072;DHT22;6602;58.934;11.166;2023-05-28T20:08:36;13.30;99.90
13072;DHT22;6602;58.934;11.166;2023-05-28T20:13:37;13.20;99.90
13072;DHT22;6602;58.934;11.166;2023-05-28T20:18:40;13.20;99.90
13072;DHT22;6602;58.934;11.166;2023-05-28T20:23:41;13.10;99.90
13072;DHT22;6602;58.934;11.166;2023-05-28T20:28:42;13.00;99.90
13072;DHT22;6602;58.934;11.166;2023-05-28T20:33:43;12.90;99.90
13072;DHT22;6602;58.934;11.166;2023-05-28T20:38:45;12.70;99.90
13072;DHT22;6602;58.934;11.166;2023-05-28T20:43:46;12.60;99.90
13072;DHT22;6602;58.934;11.166;2023-05-28T20:48:47;12.40;99.90
13072;DHT22;6602;58.934;11.166;2023-05-28T20:53:48;12.30;99.90
13072;DHT22;6602;58.934;11.166;2023-05-28T20:58:48;12.20;99.90
13072;DHT22;6602;58.934;11.166;2023-05-28T21:03:50;12.10;99.90
13072;DHT22;6602;58.934;11.166;2023-05-28T21:08:51;12.00;99.90
13072;DHT22;6602;58.934;11.166;2023-05-28T21:13:57;11.90;99.90
13072;DHT22;6602;58.934;11.166;2023-05-28T21:19:00;11.70;99.90
13072;DHT22;6602;58.934;11.166;2023-05-28T21:24:02;11.60;99.90
13072;DHT22;6602;58.934;11.166;2023-05-28T21:29:05;11.40;99.90
13072;DHT22;6602;58.934;11.166;2023-05-28T21:34:08;11.30;99.90
13072;DHT22;6602;58.934;11.166;2023-05-28T21:39:11;11.20;99.90
13072;DHT22;6602;58.934;11.166;2023-05-28T21:44:12;11.10;99.90
13072;DHT22;6602;58.934;11.166;2023-05-28T21:49:13;11.00;99.90
13072;DHT22;6602;58.934;11.166;2023-05-28T21:54:14;11.10;99.90
13072;DHT22;6602;58.934;11.166;2023-05-28T21:59:15;11.00;99.90
13072;DHT22;6602;58.934;11.166;2023-05-28T22:04:16;10.90;99.90
13072;DHT22;6602;58.934;11.166;2023-05-28T22:09:17;10.90;99.90
13072;DHT22;6602;58.934;11.166;2023-05-28T22:14:20;10.80;99.90
13072;DHT22;6602;58.934;11.166;2023-05-28T22:19:26;10.80;99.90
13072;DHT22;6602;58.934;11.166;2023-05-28T22:24:29;10.70;99.90
13072;DHT22;6602;58.934;11.166;2023-05-28T22:29:36;10.60;99.90
13072;DHT22;6602;58.934;11.166;2023-05-28T22:34:39;10.60;99.90
13072;DHT22;6602;58.934;11.166;2023-05-28T22:39:41;10.50;99.90
13072;DHT22;6602;58.934;11.166;2023-05-28T22:44:41;10.50;99.90
13072;DHT22;6602;58.934;11.166;2023-05-28T22:49:43;10.40;99.90
13072;DHT22;6602;58.934;11.166;2023-05-28T22:54:43;10.40;99.90
13072;DHT22;6602;58.934;11.166;2023-05-28T22:59:45;10.30;99.90
13072;DHT22;6602;58.934;11.166;2023-05-28T23:04:46;10.20;99.90
13072;DHT22;6602;58.934;11.166;2023-05-28T23:09:47;10.20;99.90
13072;DHT22;6602;58.934;11.166;2023-05-28T23:14:51;10.20;99.90
13072;DHT22;6602;58.934;11.166;2023-05-28T23:19:55;10.10;99.90
13072;DHT22;6602;58.934;11.166;2023-05-28T23:25:03;10.00;99.90
13072;DHT22;6602;58.934;11.166;2023-05-28T23:30:07;10.00;99.90
13072;DHT22;6602;58.934;11.166;2023-05-28T23:35:11;9.90;99.90
13072;DHT22;6602;58.934;11.166;2023-05-28T23:40:15;9.90;99.90
13072;DHT22;6602;58.934;11.166;2023-05-28T23:45:15;9.80;99.90
13072;DHT22;6602;58.934;11.166;2023-05-28T23:50:19;9.70;99.90
13072;DHT22;6602;58.934;11.166;2023-05-28T23:55:20;9.70;99.90
